sensor_id;sensor_type;location;lat;lon;timestamp;P1;durP1;ratioP1;P2;durP2;ratioP2
73107;SDS011;61559;50.476;15.588;2023-06-10T00:01:01;3.10;;;2.80;;
73107;SDS011;61559;50.476;15.588;2023-06-10T00:03:52;2.70;;;2.40;;
73107;SDS011;61559;50.476;15.588;2023-06-10T00:06:23;3.60;;;2.80;;
73107;SDS011;61559;50.476;15.588;2023-06-10T00:08:54;5.60;;;2.80;;
73107;SDS011;61559;50.476;15.588;2023-06-10T00:11:26;3.10;;;2.70;;
73107;SDS011;61559;50.476;15.588;2023-06-10T00:13:57;3.20;;;2.70;;
73107;SDS011;61559;50.476;15.588;2023-06-10T00:16:30;3.10;;;2.60;;
73107;SDS011;61559;50.476;15.588;2023-06-10T00:19:02;3.10;;;2.70;;
73107;SDS011;61559;50.476;15.588;2023-06-10T00:21:34;3.40;;;3.10;;
73107;SDS011;61559;50.476;15.588;2023-06-10T00:24:09;3.20;;;2.60;;
73107;SDS011;61559;50.476;15.588;2023-06-10T00:26:41;4.10;;;2.90;;
73107;SDS011;61559;50.476;15.588;2023-06-10T00:29:12;3.00;;;2.70;;
73107;SDS011;61559;50.476;15.588;2023-06-10T00:31:44;4.00;;;3.00;;
73107;SDS011;61559;50.476;15.588;2023-06-10T00:34:16;3.00;;;2.70;;
73107;SDS011;61559;50.476;15.588;2023-06-10T00:36:47;4.20;;;2.80;;
73107;SDS011;61559;50.476;15.588;2023-06-10T00:39:18;3.50;;;2.60;;
73107;SDS011;61559;50.476;15.588;2023-06-10T00:41:50;3.00;;;2.70;;
73107;SDS011;61559;50.476;15.588;2023-06-10T00:44:21;3.10;;;2.70;;
73107;SDS011;61559;50.476;15.588;2023-06-10T00:46:52;2.80;;;2.50;;
73107;SDS011;61559;50.476;15.588;2023-06-10T00:49:24;4.20;;;3.00;;
73107;SDS011;61559;50.476;15.588;2023-06-10T00:51:55;3.10;;;2.70;;
73107;SDS011;61559;50.476;15.588;2023-06-10T00:54:27;3.20;;;2.50;;
73107;SDS011;61559;50.476;15.588;2023-06-10T00:57:00;2.90;;;2.60;;
73107;SDS011;61559;50.476;15.588;2023-06-10T00:59:31;5.00;;;3.00;;
73107;SDS011;61559;50.476;15.588;2023-06-10T01:02:04;3.40;;;2.80;;
73107;SDS011;61559;50.476;15.588;2023-06-10T01:04:37;3.10;;;2.70;;
73107;SDS011;61559;50.476;15.588;2023-06-10T01:07:09;3.50;;;2.50;;
73107;SDS011;61559;50.476;15.588;2023-06-10T01:09:49;3.00;;;2.60;;
73107;SDS011;61559;50.476;15.588;2023-06-10T01:12:31;3.00;;;2.40;;
73107;SDS011;61559;50.476;15.588;2023-06-10T01:15:09;3.10;;;2.80;;
73107;SDS011;61559;50.476;15.588;2023-06-10T01:17:54;3.60;;;2.30;;
73107;SDS011;61559;50.476;15.588;2023-06-10T01:20:30;2.80;;;2.60;;
73107;SDS011;61559;50.476;15.588;2023-06-10T01:23:02;4.10;;;2.90;;
73107;SDS011;61559;50.476;15.588;2023-06-10T01:25:37;3.80;;;2.60;;
73107;SDS011;61559;50.476;15.588;2023-06-10T01:28:14;2.60;;;2.20;;
73107;SDS011;61559;50.476;15.588;2023-06-10T01:30:59;3.50;;;2.40;;
73107;SDS011;61559;50.476;15.588;2023-06-10T01:33:39;2.70;;;2.10;;
73107;SDS011;61559;50.476;15.588;2023-06-10T01:36:15;2.50;;;2.30;;
73107;SDS011;61559;50.476;15.588;2023-06-10T01:38:47;2.30;;;2.10;;
73107;SDS011;61559;50.476;15.588;2023-06-10T01:41:19;2.40;;;2.20;;
73107;SDS011;61559;50.476;15.588;2023-06-10T01:43:51;3.00;;;2.50;;
73107;SDS011;61559;50.476;15.588;2023-06-10T01:46:24;2.80;;;2.60;;
73107;SDS011;61559;50.476;15.588;2023-06-10T01:48:55;3.50;;;2.70;;
73107;SDS011;61559;50.476;15.588;2023-06-10T01:51:26;3.10;;;2.80;;
73107;SDS011;61559;50.476;15.588;2023-06-10T01:53:59;2.80;;;2.10;;
73107;SDS011;61559;50.476;15.588;2023-06-10T01:56:31;2.50;;;2.00;;
73107;SDS011;61559;50.476;15.588;2023-06-10T01:59:02;4.90;;;2.50;;
73107;SDS011;61559;50.476;15.588;2023-06-10T02:01:33;3.50;;;2.90;;
73107;SDS011;61559;50.476;15.588;2023-06-10T02:04:04;3.50;;;2.50;;
73107;SDS011;61559;50.476;15.588;2023-06-10T02:06:36;3.10;;;2.80;;
73107;SDS011;61559;50.476;15.588;2023-06-10T02:09:07;2.90;;;2.60;;
73107;SDS011;61559;50.476;15.588;2023-06-10T02:11:38;3.00;;;2.70;;
73107;SDS011;61559;50.476;15.588;2023-06-10T02:14:11;3.00;;;2.60;;
73107;SDS011;61559;50.476;15.588;2023-06-10T02:16:42;3.20;;;2.90;;
73107;SDS011;61559;50.476;15.588;2023-06-10T02:19:15;2.50;;;2.30;;
73107;SDS011;61559;50.476;15.588;2023-06-10T02:21:49;3.10;;;2.70;;
73107;SDS011;61559;50.476;15.588;2023-06-10T02:24:20;3.20;;;2.60;;
73107;SDS011;61559;50.476;15.588;2023-06-10T02:26:51;3.40;;;2.80;;
73107;SDS011;61559;50.476;15.588;2023-06-10T02:29:23;4.30;;;2.70;;
73107;SDS011;61559;50.476;15.588;2023-06-10T02:31:54;3.50;;;2.70;;
73107;SDS011;61559;50.476;15.588;2023-06-10T02:34:25;5.10;;;3.00;;
73107;SDS011;61559;50.476;15.588;2023-06-10T02:36:57;3.00;;;2.70;;
73107;SDS011;61559;50.476;15.588;2023-06-10T02:39:28;3.30;;;2.90;;
73107;SDS011;61559;50.476;15.588;2023-06-10T02:42:00;4.10;;;2.70;;
73107;SDS011;61559;50.476;15.588;2023-06-10T02:44:31;3.40;;;2.70;;
73107;SDS011;61559;50.476;15.588;2023-06-10T02:47:02;6.40;;;2.90;;
73107;SDS011;61559;50.476;15.588;2023-06-10T02:49:34;4.00;;;2.70;;
73107;SDS011;61559;50.476;15.588;2023-06-10T02:52:06;4.40;;;3.40;;
73107;SDS011;61559;50.476;15.588;2023-06-10T02:54:39;4.50;;;3.00;;
73107;SDS011;61559;50.476;15.588;2023-06-10T02:57:10;4.10;;;3.10;;
73107;SDS011;61559;50.476;15.588;2023-06-10T02:59:42;3.40;;;3.10;;
73107;SDS011;61559;50.476;15.588;2023-06-10T03:02:13;4.10;;;3.30;;
73107;SDS011;61559;50.476;15.588;2023-06-10T03:04:45;3.60;;;2.90;;
73107;SDS011;61559;50.476;15.588;2023-06-10T03:07:18;4.80;;;3.70;;
73107;SDS011;61559;50.476;15.588;2023-06-10T03:09:50;3.80;;;3.20;;
73107;SDS011;61559;50.476;15.588;2023-06-10T03:12:21;3.90;;;3.50;;
73107;SDS011;61559;50.476;15.588;2023-06-10T03:14:52;4.10;;;2.90;;
73107;SDS011;61559;50.476;15.588;2023-06-10T03:17:23;4.50;;;3.30;;
73107;SDS011;61559;50.476;15.588;2023-06-10T03:19:55;4.60;;;3.20;;
73107;SDS011;61559;50.476;15.588;2023-06-10T03:22:26;4.10;;;3.60;;
73107;SDS011;61559;50.476;15.588;2023-06-10T03:24:57;4.20;;;3.40;;
73107;SDS011;61559;50.476;15.588;2023-06-10T03:27:29;4.70;;;3.30;;
73107;SDS011;61559;50.476;15.588;2023-06-10T03:30:01;3.90;;;3.40;;
73107;SDS011;61559;50.476;15.588;2023-06-10T03:32:35;3.80;;;3.30;;
73107;SDS011;61559;50.476;15.588;2023-06-10T03:35:07;4.20;;;3.20;;
73107;SDS011;61559;50.476;15.588;2023-06-10T03:37:40;4.70;;;3.00;;
73107;SDS011;61559;50.476;15.588;2023-06-10T03:40:11;3.80;;;3.50;;
73107;SDS011;61559;50.476;15.588;2023-06-10T03:42:42;5.00;;;3.50;;
73107;SDS011;61559;50.476;15.588;2023-06-10T03:45:14;4.00;;;3.30;;
73107;SDS011;61559;50.476;15.588;2023-06-10T03:47:45;4.10;;;3.40;;
73107;SDS011;61559;50.476;15.588;2023-06-10T03:50:17;4.50;;;3.20;;
73107;SDS011;61559;50.476;15.588;2023-06-10T03:52:48;3.70;;;3.40;;
73107;SDS011;61559;50.476;15.588;2023-06-10T03:55:20;3.60;;;3.10;;
73107;SDS011;61559;50.476;15.588;2023-06-10T03:57:51;5.00;;;3.50;;
73107;SDS011;61559;50.476;15.588;2023-06-10T04:00:23;3.50;;;3.20;;
73107;SDS011;61559;50.476;15.588;2023-06-10T04:02:54;4.50;;;3.60;;
73107;SDS011;61559;50.476;15.588;2023-06-10T04:05:26;4.10;;;3.50;;
73107;SDS011;61559;50.476;15.588;2023-06-10T04:07:58;5.20;;;3.30;;
73107;SDS011;61559;50.476;15.588;2023-06-10T04:10:30;3.90;;;3.30;;
73107;SDS011;61559;50.476;15.588;2023-06-10T04:13:01;4.10;;;3.40;;
73107;SDS011;61559;50.476;15.588;2023-06-10T04:15:33;5.50;;;3.90;;
73107;SDS011;61559;50.476;15.588;2023-06-10T04:18:04;5.80;;;3.90;;
73107;SDS011;61559;50.476;15.588;2023-06-10T04:20:36;5.60;;;3.80;;
73107;SDS011;61559;50.476;15.588;2023-06-10T04:23:07;5.70;;;4.00;;
73107;SDS011;61559;50.476;15.588;2023-06-10T04:25:38;5.40;;;3.90;;
73107;SDS011;61559;50.476;15.588;2023-06-10T04:28:10;5.90;;;4.30;;
73107;SDS011;61559;50.476;15.588;2023-06-10T04:30:41;4.60;;;3.90;;
73107;SDS011;61559;50.476;15.588;2023-06-10T04:33:13;6.60;;;4.40;;
73107;SDS011;61559;50.476;15.588;2023-06-10T04:35:44;5.20;;;4.40;;
73107;SDS011;61559;50.476;15.588;2023-06-10T04:38:15;4.80;;;4.30;;
73107;SDS011;61559;50.476;15.588;2023-06-10T04:40:46;4.70;;;4.10;;
73107;SDS011;61559;50.476;15.588;2023-06-10T04:43:17;5.20;;;4.20;;
73107;SDS011;61559;50.476;15.588;2023-06-10T04:45:49;4.20;;;3.80;;
73107;SDS011;61559;50.476;15.588;2023-06-10T04:48:20;6.20;;;4.10;;
73107;SDS011;61559;50.476;15.588;2023-06-10T04:50:52;9.30;;;4.30;;
73107;SDS011;61559;50.476;15.588;2023-06-10T04:53:24;5.50;;;4.20;;
73107;SDS011;61559;50.476;15.588;2023-06-10T04:55:57;4.90;;;3.90;;
73107;SDS011;61559;50.476;15.588;2023-06-10T04:58:29;6.70;;;4.60;;
73107;SDS011;61559;50.476;15.588;2023-06-10T05:01:00;9.40;;;4.20;;
73107;SDS011;61559;50.476;15.588;2023-06-10T05:03:31;6.30;;;4.10;;
73107;SDS011;61559;50.476;15.588;2023-06-10T05:06:03;5.70;;;4.40;;
73107;SDS011;61559;50.476;15.588;2023-06-10T05:08:34;6.60;;;4.30;;
73107;SDS011;61559;50.476;15.588;2023-06-10T05:11:05;5.60;;;4.50;;
73107;SDS011;61559;50.476;15.588;2023-06-10T05:13:36;5.20;;;4.30;;
73107;SDS011;61559;50.476;15.588;2023-06-10T05:16:08;7.20;;;4.40;;
73107;SDS011;61559;50.476;15.588;2023-06-10T05:18:39;5.50;;;4.50;;
73107;SDS011;61559;50.476;15.588;2023-06-10T05:21:10;6.40;;;4.30;;
73107;SDS011;61559;50.476;15.588;2023-06-10T05:23:42;5.00;;;4.30;;
73107;SDS011;61559;50.476;15.588;2023-06-10T05:26:13;5.60;;;4.40;;
73107;SDS011;61559;50.476;15.588;2023-06-10T05:28:44;5.40;;;4.30;;
73107;SDS011;61559;50.476;15.588;2023-06-10T05:31:15;6.10;;;4.50;;
73107;SDS011;61559;50.476;15.588;2023-06-10T05:33:46;5.80;;;4.40;;
73107;SDS011;61559;50.476;15.588;2023-06-10T05:36:17;5.80;;;4.20;;
73107;SDS011;61559;50.476;15.588;2023-06-10T05:38:48;5.10;;;4.00;;
73107;SDS011;61559;50.476;15.588;2023-06-10T05:41:19;6.40;;;5.00;;
73107;SDS011;61559;50.476;15.588;2023-06-10T05:43:51;9.50;;;5.10;;
73107;SDS011;61559;50.476;15.588;2023-06-10T05:46:22;5.90;;;4.50;;
73107;SDS011;61559;50.476;15.588;2023-06-10T05:48:53;6.50;;;5.30;;
73107;SDS011;61559;50.476;15.588;2023-06-10T05:51:24;5.70;;;4.90;;
73107;SDS011;61559;50.476;15.588;2023-06-10T05:53:56;6.70;;;5.10;;
73107;SDS011;61559;50.476;15.588;2023-06-10T05:56:29;8.80;;;5.90;;
73107;SDS011;61559;50.476;15.588;2023-06-10T05:59:00;5.60;;;4.60;;
73107;SDS011;61559;50.476;15.588;2023-06-10T06:01:31;6.70;;;5.00;;
73107;SDS011;61559;50.476;15.588;2023-06-10T06:04:02;6.80;;;4.90;;
73107;SDS011;61559;50.476;15.588;2023-06-10T06:06:34;6.80;;;4.90;;
73107;SDS011;61559;50.476;15.588;2023-06-10T06:09:08;7.60;;;5.00;;
73107;SDS011;61559;50.476;15.588;2023-06-10T06:11:39;6.40;;;4.30;;
73107;SDS011;61559;50.476;15.588;2023-06-10T06:14:10;5.80;;;4.00;;
73107;SDS011;61559;50.476;15.588;2023-06-10T06:16:41;7.50;;;5.10;;
73107;SDS011;61559;50.476;15.588;2023-06-10T06:19:12;5.80;;;4.10;;
73107;SDS011;61559;50.476;15.588;2023-06-10T06:21:47;6.60;;;4.60;;
73107;SDS011;61559;50.476;15.588;2023-06-10T06:24:18;6.10;;;4.70;;
73107;SDS011;61559;50.476;15.588;2023-06-10T06:26:49;5.00;;;4.10;;
73107;SDS011;61559;50.476;15.588;2023-06-10T06:29:20;5.40;;;4.20;;
73107;SDS011;61559;50.476;15.588;2023-06-10T06:31:51;7.40;;;4.40;;
73107;SDS011;61559;50.476;15.588;2023-06-10T06:34:23;8.50;;;4.40;;
73107;SDS011;61559;50.476;15.588;2023-06-10T06:36:54;7.80;;;4.80;;
73107;SDS011;61559;50.476;15.588;2023-06-10T06:39:25;6.90;;;4.30;;
73107;SDS011;61559;50.476;15.588;2023-06-10T06:41:56;7.00;;;4.20;;
73107;SDS011;61559;50.476;15.588;2023-06-10T06:44:29;5.40;;;4.30;;
73107;SDS011;61559;50.476;15.588;2023-06-10T06:47:00;5.20;;;4.30;;
73107;SDS011;61559;50.476;15.588;2023-06-10T06:49:31;7.00;;;4.60;;
73107;SDS011;61559;50.476;15.588;2023-06-10T06:52:02;5.10;;;4.20;;
73107;SDS011;61559;50.476;15.588;2023-06-10T06:54:34;5.30;;;4.20;;
73107;SDS011;61559;50.476;15.588;2023-06-10T06:57:06;6.70;;;5.20;;
73107;SDS011;61559;50.476;15.588;2023-06-10T06:59:37;5.70;;;4.60;;
73107;SDS011;61559;50.476;15.588;2023-06-10T07:02:08;5.60;;;4.60;;
73107;SDS011;61559;50.476;15.588;2023-06-10T07:04:40;6.60;;;4.30;;
73107;SDS011;61559;50.476;15.588;2023-06-10T07:07:12;6.60;;;4.70;;
73107;SDS011;61559;50.476;15.588;2023-06-10T07:09:43;7.20;;;5.00;;
73107;SDS011;61559;50.476;15.588;2023-06-10T07:12:14;5.70;;;4.40;;
73107;SDS011;61559;50.476;15.588;2023-06-10T07:14:46;5.50;;;4.90;;
73107;SDS011;61559;50.476;15.588;2023-06-10T07:17:17;5.60;;;4.60;;
73107;SDS011;61559;50.476;15.588;2023-06-10T07:19:48;7.10;;;4.90;;
73107;SDS011;61559;50.476;15.588;2023-06-10T07:22:19;5.90;;;5.00;;
73107;SDS011;61559;50.476;15.588;2023-06-10T07:24:50;6.10;;;4.60;;
73107;SDS011;61559;50.476;15.588;2023-06-10T07:27:22;5.90;;;4.30;;
73107;SDS011;61559;50.476;15.588;2023-06-10T07:29:53;6.80;;;5.60;;
73107;SDS011;61559;50.476;15.588;2023-06-10T07:32:24;4.90;;;4.40;;
73107;SDS011;61559;50.476;15.588;2023-06-10T07:34:56;9.50;;;4.90;;
73107;SDS011;61559;50.476;15.588;2023-06-10T07:37:27;5.70;;;5.10;;
73107;SDS011;61559;50.476;15.588;2023-06-10T07:39:58;6.60;;;4.60;;
73107;SDS011;61559;50.476;15.588;2023-06-10T07:42:30;6.50;;;5.00;;
73107;SDS011;61559;50.476;15.588;2023-06-10T07:45:04;5.30;;;4.50;;
73107;SDS011;61559;50.476;15.588;2023-06-10T07:47:37;7.50;;;6.00;;
73107;SDS011;61559;50.476;15.588;2023-06-10T07:50:09;6.40;;;5.10;;
73107;SDS011;61559;50.476;15.588;2023-06-10T07:52:40;6.50;;;5.40;;
73107;SDS011;61559;50.476;15.588;2023-06-10T07:55:11;7.10;;;5.40;;
73107;SDS011;61559;50.476;15.588;2023-06-10T07:57:42;5.80;;;4.70;;
73107;SDS011;61559;50.476;15.588;2023-06-10T08:00:14;5.00;;;4.50;;
73107;SDS011;61559;50.476;15.588;2023-06-10T08:02:46;7.20;;;4.70;;
73107;SDS011;61559;50.476;15.588;2023-06-10T08:05:18;5.30;;;4.30;;
73107;SDS011;61559;50.476;15.588;2023-06-10T08:07:50;5.60;;;4.40;;
73107;SDS011;61559;50.476;15.588;2023-06-10T08:10:21;5.80;;;4.60;;
73107;SDS011;61559;50.476;15.588;2023-06-10T08:12:52;4.90;;;4.00;;
73107;SDS011;61559;50.476;15.588;2023-06-10T08:15:23;7.30;;;5.00;;
73107;SDS011;61559;50.476;15.588;2023-06-10T08:17:54;5.60;;;3.30;;
73107;SDS011;61559;50.476;15.588;2023-06-10T08:20:26;7.30;;;4.40;;
73107;SDS011;61559;50.476;15.588;2023-06-10T08:23:10;5.50;;;4.30;;
73107;SDS011;61559;50.476;15.588;2023-06-10T08:25:41;6.50;;;4.30;;
73107;SDS011;61559;50.476;15.588;2023-06-10T08:28:12;4.40;;;3.80;;
73107;SDS011;61559;50.476;15.588;2023-06-10T08:30:44;6.90;;;4.20;;
73107;SDS011;61559;50.476;15.588;2023-06-10T08:33:15;11.10;;;4.80;;
73107;SDS011;61559;50.476;15.588;2023-06-10T08:35:46;5.40;;;4.30;;
73107;SDS011;61559;50.476;15.588;2023-06-10T08:38:17;8.20;;;4.60;;
73107;SDS011;61559;50.476;15.588;2023-06-10T08:40:48;5.00;;;4.50;;
73107;SDS011;61559;50.476;15.588;2023-06-10T08:43:27;4.60;;;4.10;;
73107;SDS011;61559;50.476;15.588;2023-06-10T08:46:03;6.40;;;4.40;;
73107;SDS011;61559;50.476;15.588;2023-06-10T08:48:37;6.50;;;4.50;;
73107;SDS011;61559;50.476;15.588;2023-06-10T08:51:12;5.10;;;4.60;;
73107;SDS011;61559;50.476;15.588;2023-06-10T08:53:46;7.60;;;4.90;;
73107;SDS011;61559;50.476;15.588;2023-06-10T08:56:24;5.00;;;4.10;;
73107;SDS011;61559;50.476;15.588;2023-06-10T08:58:57;6.10;;;4.70;;
73107;SDS011;61559;50.476;15.588;2023-06-10T09:01:29;6.60;;;5.00;;
73107;SDS011;61559;50.476;15.588;2023-06-10T09:04:00;7.20;;;5.00;;
73107;SDS011;61559;50.476;15.588;2023-06-10T09:06:32;6.70;;;5.30;;
73107;SDS011;61559;50.476;15.588;2023-06-10T09:09:04;6.10;;;5.00;;
73107;SDS011;61559;50.476;15.588;2023-06-10T09:11:36;5.90;;;5.00;;
73107;SDS011;61559;50.476;15.588;2023-06-10T09:14:07;6.30;;;5.70;;
73107;SDS011;61559;50.476;15.588;2023-06-10T09:16:40;9.30;;;5.50;;
73107;SDS011;61559;50.476;15.588;2023-06-10T09:19:14;5.80;;;5.20;;
73107;SDS011;61559;50.476;15.588;2023-06-10T09:21:46;6.30;;;5.00;;
73107;SDS011;61559;50.476;15.588;2023-06-10T09:24:17;6.10;;;5.00;;
73107;SDS011;61559;50.476;15.588;2023-06-10T09:26:50;8.20;;;5.50;;
73107;SDS011;61559;50.476;15.588;2023-06-10T09:29:31;7.80;;;4.80;;
73107;SDS011;61559;50.476;15.588;2023-06-10T09:32:14;7.50;;;5.40;;
73107;SDS011;61559;50.476;15.588;2023-06-10T09:34:46;6.20;;;4.90;;
73107;SDS011;61559;50.476;15.588;2023-06-10T09:37:21;7.20;;;4.70;;
73107;SDS011;61559;50.476;15.588;2023-06-10T09:40:02;5.50;;;5.00;;
73107;SDS011;61559;50.476;15.588;2023-06-10T09:42:38;9.60;;;5.30;;
73107;SDS011;61559;50.476;15.588;2023-06-10T09:45:10;8.80;;;5.90;;
73107;SDS011;61559;50.476;15.588;2023-06-10T09:47:41;8.40;;;5.30;;
73107;SDS011;61559;50.476;15.588;2023-06-10T09:50:15;7.20;;;5.20;;
73107;SDS011;61559;50.476;15.588;2023-06-10T09:52:46;6.60;;;5.10;;
73107;SDS011;61559;50.476;15.588;2023-06-10T09:55:18;9.10;;;6.20;;
73107;SDS011;61559;50.476;15.588;2023-06-10T09:57:51;8.20;;;5.40;;
73107;SDS011;61559;50.476;15.588;2023-06-10T10:00:24;6.40;;;5.00;;
73107;SDS011;61559;50.476;15.588;2023-06-10T10:02:55;6.10;;;3.90;;
73107;SDS011;61559;50.476;15.588;2023-06-10T10:05:26;7.60;;;4.80;;
73107;SDS011;61559;50.476;15.588;2023-06-10T10:07:59;9.00;;;4.80;;
73107;SDS011;61559;50.476;15.588;2023-06-10T10:10:30;6.40;;;4.10;;
73107;SDS011;61559;50.476;15.588;2023-06-10T10:13:01;7.40;;;3.90;;
73107;SDS011;61559;50.476;15.588;2023-06-10T10:15:32;8.40;;;4.60;;
73107;SDS011;61559;50.476;15.588;2023-06-10T10:18:08;5.50;;;4.40;;
73107;SDS011;61559;50.476;15.588;2023-06-10T10:20:45;5.30;;;4.00;;
73107;SDS011;61559;50.476;15.588;2023-06-10T10:23:21;5.30;;;3.60;;
73107;SDS011;61559;50.476;15.588;2023-06-10T10:25:56;8.80;;;4.60;;
73107;SDS011;61559;50.476;15.588;2023-06-10T10:28:32;5.20;;;4.00;;
73107;SDS011;61559;50.476;15.588;2023-06-10T10:31:09;6.30;;;4.40;;
73107;SDS011;61559;50.476;15.588;2023-06-10T10:33:42;5.50;;;4.40;;
73107;SDS011;61559;50.476;15.588;2023-06-10T10:36:22;7.80;;;4.70;;
73107;SDS011;61559;50.476;15.588;2023-06-10T10:38:53;4.40;;;3.90;;
73107;SDS011;61559;50.476;15.588;2023-06-10T10:41:25;4.80;;;4.30;;
73107;SDS011;61559;50.476;15.588;2023-06-10T10:43:57;7.60;;;4.30;;
73107;SDS011;61559;50.476;15.588;2023-06-10T10:46:30;5.60;;;4.30;;
73107;SDS011;61559;50.476;15.588;2023-06-10T10:49:11;6.30;;;4.30;;
73107;SDS011;61559;50.476;15.588;2023-06-10T10:51:55;5.20;;;4.30;;
73107;SDS011;61559;50.476;15.588;2023-06-10T10:54:30;4.80;;;4.00;;
73107;SDS011;61559;50.476;15.588;2023-06-10T10:57:12;6.40;;;4.50;;
73107;SDS011;61559;50.476;15.588;2023-06-10T10:59:53;5.50;;;4.20;;
73107;SDS011;61559;50.476;15.588;2023-06-10T11:02:34;4.90;;;4.10;;
73107;SDS011;61559;50.476;15.588;2023-06-10T11:05:08;6.50;;;4.00;;
73107;SDS011;61559;50.476;15.588;2023-06-10T11:07:51;5.30;;;3.90;;
73107;SDS011;61559;50.476;15.588;2023-06-10T11:10:30;5.90;;;4.10;;
73107;SDS011;61559;50.476;15.588;2023-06-10T11:13:06;5.60;;;3.50;;
73107;SDS011;61559;50.476;15.588;2023-06-10T11:15:42;4.00;;;3.60;;
73107;SDS011;61559;50.476;15.588;2023-06-10T11:18:20;5.10;;;3.70;;
73107;SDS011;61559;50.476;15.588;2023-06-10T11:20:53;4.50;;;3.80;;
73107;SDS011;61559;50.476;15.588;2023-06-10T11:23:26;4.70;;;3.90;;
73107;SDS011;61559;50.476;15.588;2023-06-10T11:26:10;4.90;;;3.50;;
73107;SDS011;61559;50.476;15.588;2023-06-10T11:31:42;4.10;;;3.70;;
73107;SDS011;61559;50.476;15.588;2023-06-10T11:34:15;6.90;;;4.10;;
73107;SDS011;61559;50.476;15.588;2023-06-10T11:36:54;5.80;;;4.30;;
73107;SDS011;61559;50.476;15.588;2023-06-10T11:39:26;4.30;;;3.80;;
73107;SDS011;61559;50.476;15.588;2023-06-10T11:41:58;6.20;;;4.50;;
73107;SDS011;61559;50.476;15.588;2023-06-10T11:44:30;7.90;;;4.40;;
73107;SDS011;61559;50.476;15.588;2023-06-10T11:47:06;6.50;;;4.20;;
73107;SDS011;61559;50.476;15.588;2023-06-10T11:49:40;5.30;;;3.90;;
73107;SDS011;61559;50.476;15.588;2023-06-10T11:52:14;4.80;;;4.00;;
73107;SDS011;61559;50.476;15.588;2023-06-10T11:54:46;7.20;;;4.40;;
73107;SDS011;61559;50.476;15.588;2023-06-10T11:57:24;6.30;;;4.50;;
73107;SDS011;61559;50.476;15.588;2023-06-10T11:59:55;8.40;;;3.90;;
73107;SDS011;61559;50.476;15.588;2023-06-10T12:02:34;5.30;;;4.70;;
73107;SDS011;61559;50.476;15.588;2023-06-10T12:05:12;5.10;;;4.20;;
73107;SDS011;61559;50.476;15.588;2023-06-10T12:07:46;4.80;;;3.80;;
73107;SDS011;61559;50.476;15.588;2023-06-10T12:10:17;5.10;;;4.50;;
73107;SDS011;61559;50.476;15.588;2023-06-10T12:12:54;6.10;;;4.40;;
73107;SDS011;61559;50.476;15.588;2023-06-10T12:15:26;6.30;;;4.80;;
73107;SDS011;61559;50.476;15.588;2023-06-10T12:17:58;5.90;;;4.10;;
73107;SDS011;61559;50.476;15.588;2023-06-10T12:20:30;5.50;;;4.20;;
73107;SDS011;61559;50.476;15.588;2023-06-10T12:23:10;4.80;;;4.00;;
73107;SDS011;61559;50.476;15.588;2023-06-10T12:25:50;5.20;;;4.30;;
73107;SDS011;61559;50.476;15.588;2023-06-10T12:28:22;4.40;;;3.90;;
73107;SDS011;61559;50.476;15.588;2023-06-10T12:31:06;4.80;;;4.30;;
73107;SDS011;61559;50.476;15.588;2023-06-10T12:33:38;6.30;;;3.80;;
73107;SDS011;61559;50.476;15.588;2023-06-10T12:36:15;6.20;;;3.90;;
73107;SDS011;61559;50.476;15.588;2023-06-10T12:38:46;4.80;;;3.80;;
73107;SDS011;61559;50.476;15.588;2023-06-10T12:41:20;4.10;;;3.30;;
73107;SDS011;61559;50.476;15.588;2023-06-10T12:43:51;5.00;;;4.10;;
73107;SDS011;61559;50.476;15.588;2023-06-10T12:46:22;7.00;;;4.30;;
73107;SDS011;61559;50.476;15.588;2023-06-10T12:48:53;6.00;;;4.10;;
73107;SDS011;61559;50.476;15.588;2023-06-10T12:51:25;4.40;;;3.70;;
73107;SDS011;61559;50.476;15.588;2023-06-10T12:53:56;5.70;;;4.10;;
73107;SDS011;61559;50.476;15.588;2023-06-10T12:56:29;4.30;;;3.70;;
73107;SDS011;61559;50.476;15.588;2023-06-10T12:59:00;7.30;;;4.40;;
73107;SDS011;61559;50.476;15.588;2023-06-10T13:01:31;4.60;;;3.40;;
73107;SDS011;61559;50.476;15.588;2023-06-10T13:04:03;5.60;;;4.00;;
73107;SDS011;61559;50.476;15.588;2023-06-10T13:06:35;6.80;;;4.00;;
73107;SDS011;61559;50.476;15.588;2023-06-10T13:09:08;4.10;;;3.70;;
73107;SDS011;61559;50.476;15.588;2023-06-10T13:11:39;4.60;;;4.20;;
73107;SDS011;61559;50.476;15.588;2023-06-10T13:14:11;6.40;;;4.00;;
73107;SDS011;61559;50.476;15.588;2023-06-10T13:16:42;6.00;;;4.10;;
73107;SDS011;61559;50.476;15.588;2023-06-10T13:19:17;4.40;;;3.70;;
73107;SDS011;61559;50.476;15.588;2023-06-10T13:21:49;5.50;;;4.20;;
73107;SDS011;61559;50.476;15.588;2023-06-10T13:24:21;5.20;;;4.40;;
73107;SDS011;61559;50.476;15.588;2023-06-10T13:26:51;5.80;;;4.00;;
73107;SDS011;61559;50.476;15.588;2023-06-10T13:29:24;7.70;;;4.30;;
73107;SDS011;61559;50.476;15.588;2023-06-10T13:31:55;6.80;;;3.90;;
73107;SDS011;61559;50.476;15.588;2023-06-10T13:34:26;6.10;;;4.20;;
73107;SDS011;61559;50.476;15.588;2023-06-10T13:36:57;4.90;;;3.90;;
73107;SDS011;61559;50.476;15.588;2023-06-10T13:39:28;4.40;;;4.00;;
73107;SDS011;61559;50.476;15.588;2023-06-10T13:42:00;8.10;;;3.80;;
73107;SDS011;61559;50.476;15.588;2023-06-10T13:44:31;6.20;;;4.30;;
73107;SDS011;61559;50.476;15.588;2023-06-10T13:47:04;3.40;;;2.70;;
73107;SDS011;61559;50.476;15.588;2023-06-10T13:49:36;6.20;;;4.20;;
73107;SDS011;61559;50.476;15.588;2023-06-10T13:52:07;5.90;;;4.00;;
73107;SDS011;61559;50.476;15.588;2023-06-10T13:54:38;5.50;;;4.40;;
73107;SDS011;61559;50.476;15.588;2023-06-10T13:57:09;6.00;;;3.80;;
73107;SDS011;61559;50.476;15.588;2023-06-10T13:59:40;6.60;;;4.70;;
73107;SDS011;61559;50.476;15.588;2023-06-10T14:02:11;6.60;;;4.30;;
73107;SDS011;61559;50.476;15.588;2023-06-10T14:04:43;7.00;;;4.20;;
73107;SDS011;61559;50.476;15.588;2023-06-10T14:07:15;5.60;;;4.20;;
73107;SDS011;61559;50.476;15.588;2023-06-10T14:09:46;5.10;;;4.20;;
73107;SDS011;61559;50.476;15.588;2023-06-10T14:12:19;6.00;;;4.70;;
73107;SDS011;61559;50.476;15.588;2023-06-10T14:14:50;7.90;;;4.50;;
73107;SDS011;61559;50.476;15.588;2023-06-10T14:17:21;5.80;;;4.10;;
73107;SDS011;61559;50.476;15.588;2023-06-10T14:19:52;6.00;;;4.10;;
73107;SDS011;61559;50.476;15.588;2023-06-10T14:22:23;5.00;;;4.50;;
73107;SDS011;61559;50.476;15.588;2023-06-10T14:24:55;6.00;;;4.50;;
73107;SDS011;61559;50.476;15.588;2023-06-10T14:27:26;5.40;;;4.50;;
73107;SDS011;61559;50.476;15.588;2023-06-10T14:29:57;9.80;;;5.40;;
73107;SDS011;61559;50.476;15.588;2023-06-10T14:32:31;6.80;;;4.60;;
73107;SDS011;61559;50.476;15.588;2023-06-10T14:35:02;5.90;;;4.90;;
73107;SDS011;61559;50.476;15.588;2023-06-10T14:37:34;6.10;;;4.70;;
73107;SDS011;61559;50.476;15.588;2023-06-10T14:40:06;6.10;;;4.90;;
73107;SDS011;61559;50.476;15.588;2023-06-10T14:42:38;7.90;;;4.50;;
73107;SDS011;61559;50.476;15.588;2023-06-10T14:45:09;5.50;;;4.40;;
73107;SDS011;61559;50.476;15.588;2023-06-10T14:47:41;8.50;;;4.80;;
73107;SDS011;61559;50.476;15.588;2023-06-10T14:50:12;5.70;;;4.60;;
73107;SDS011;61559;50.476;15.588;2023-06-10T14:52:43;5.70;;;4.70;;
73107;SDS011;61559;50.476;15.588;2023-06-10T14:55:14;7.80;;;4.70;;
73107;SDS011;61559;50.476;15.588;2023-06-10T14:57:46;5.10;;;4.50;;
73107;SDS011;61559;50.476;15.588;2023-06-10T15:00:17;5.00;;;4.50;;
73107;SDS011;61559;50.476;15.588;2023-06-10T15:02:51;5.70;;;5.00;;
73107;SDS011;61559;50.476;15.588;2023-06-10T15:05:24;8.30;;;5.00;;
73107;SDS011;61559;50.476;15.588;2023-06-10T15:07:55;8.00;;;5.10;;